Medlin's Ranch, Nevada Weather observations

Data are for observation ending at time listed.
 Day   Time    Ave.   Ave.  Ave.  Vector   Max.   Stn.    Total    Solar   Ave.  
  of    of     Air    Rel.  Wind   Wind    Wind   Baro.  Precip.   Rad.    Soil  
Year   Day     Temp.  Hum.  Speed  Dir.    Gust   Pres.                    Temp. 
2014   (PST)    F      %     mph   deg.    mph     mb.     in.     W/m2     F   
------------------------------------------------------------------------------
 244   16:00   94.4    10    6.1   139     13.7    860     0.00     521    93.5
 244   17:00   93.9    10    6.1   158     15.0    860     0.00     313    93.5
 244   18:00   90.7    10    6.8   213     13.7    860     0.00     100    92.8
 244   19:00   83.1    13    4.8   217      8.1    861     0.00       2    91.5
 244   20:00   77.2    16    3.1   214      7.1    861     0.00       0    89.9
 244   21:00   77.7    15    3.8   186      8.3    862     0.00       0    88.2
 244   22:00   71.2    20    2.8   245      5.2    862     0.00       0    86.7
 244   23:00   70.0    20    3.1   333      7.4    862     0.00       0    85.3
 245    0:00   68.7    23    4.5   272      7.2    862     0.00       0    84.0
 245    1:00   69.2    25    3.5   234      7.0    862     0.00       0    82.8
 245    2:00   65.1    28    3.3   311      5.1    862     0.00       0    81.9
 245    3:00   65.2    30    3.8   308      7.0    862     0.00       0    80.9
 245    4:00   63.6    31    3.2   282      4.6    862     0.00       0    79.9
 245    5:00   60.9    34    2.7   275      4.5    862     0.00       0    79.1
 245    6:00   63.4    32    4.5   290      5.9    863     0.00      34    78.2
 245    7:00   73.3    25    3.6   307      6.4    863     0.00     214    77.5
 245    8:00   80.6    18    2.1     5      5.2    863     0.00     437    77.8
 245    9:00   85.9    14    2.8   144      7.5    863     0.00     627    79.4
 245   10:00   88.3    13    3.6   147     11.9    863     0.00     788    82.1
 245   11:00   89.4    13    4.5   148     11.5    863     0.00     895    85.3
 245   12:00   91.0    12    5.7   143     14.0    862     0.00     942    88.5
 245   13:00   92.7    12    6.4   143     18.6    861     0.00     923    91.2
 245   14:00   93.9    10    7.5   179     15.3    860     0.00     843    93.1
 245   15:00   94.0    10    8.0   201     17.2    860     0.00     704    93.7

Return to Medlin's Ranch, Nevada graphs page.


Western Regional Climate Center,wrcc@dri.edu